Pacific Palisades, CA

5:22 AM PDT on September 19, 2014 (GMT -0700)
KCAPACIF37 | Change Station
CLOSE
Current Station
Personal Weather Station
Location: Pacific Palisades, CA
Elevation: 312 ft
Nearby Weather Stations

Elev 312 ft 34.05 °N, 118.54 °W | Updated 3 minutes ago

Overcast
Overcast
65.5 °F
Feels Like 65.5 °F
N
0.0
Wind Variable Wind from SE
Gusts 1.0 mph

Today
High -- | Low -- °F
--% Chance of Precip.
Yesterday
High -- | Low -- °F
Precip. -- in
6:40 AM 6:54 PM
Waning Crescent, 19% visible
Pressure 29.88 in
Visibility 10.0 miles
Clouds Overcast 2100 ft
Dew Point 62 °F
Humidity 88%
Rainfall 0.00 in
Snow Depth 0 in , 1 in , 1 in
UV 0 out of 12
Pollen 6.90 out of 12
Ozone Good
Flu Activity Not available.
METAR KSMO 191151Z AUTO 00000KT 10SM OVC021 19/17 A2988 RMK AO2 SLP116 T01940167 10217 20189 50002 $

More Conditions Fewer Conditions

Pressure 29.88 in
Visibility 10.0 miles
Clouds Overcast 2100 ft
Dew Point 62 °F
Humidity 88%
Rainfall 0.00 in
Snow Depth 0 in , 1 in , 1 in
UV 0 out of 12
Pollen 6.90 out of 12
Ozone Good
Flu Activity Not available.
METAR KSMO 191151Z AUTO 00000KT 10SM OVC021 19/17 A2988 RMK AO2 SLP116 T01940167 10217 20189 50002 $

More Conditions Fewer Conditions

10-Day Weather Forecast

Almanac

Astronomy

Sep. 19, 2014 Rise Set
Actual Time 6:40 AM PDT 6:54 PM PDT
Civil Twilight 6:15 AM PDT 7:19 PM PDT
Nautical Twilight 5:45 AM PDT 7:49 PM PDT
Astronomical Twilight 5:16 AM PDT 8:18 PM PDT
Moon 2:38 AM PDT 4:18 PM PDT
Length of Visible Light 13h 04m
Length of Day
12h 14m
Tomorrow will be 2m 7s shorter.
Waning Crescent, 19% of the Moon is Illuminated
Today
Waning Crescent
Sep 24
New
Oct 1
First Quarter
Oct 8
Full
Oct 15
Last Quarter

Today's Extremes

State Highs State Lows

Community

WunderPhotos

Upload Photos

1,754,598 photos uploaded!

Nearby

Air Quality

  Air Quality AQ Index Pollutant
Yesterday Good
OZONE
Current Good
OZONE
Friday Good
PM10
Friday Good
OZONE
Friday Good
CO
Friday Good
NO2

Snow Depth

Station Depth Elevation
Fallen Leaf 0 in 6300 ft
Leavitt Lake 1 in 9400 ft
Rubicon #2 1 in 7500 ft
Echo Peak 1 in 7800 ft
Tahoe City Cross 0 in 6750 ft

Earthquake Activity

City Distance Mag. Time & Date
Aguanga, California 108 miles 2.5 1:38 AM PDT
2014-09-19
Minimum magnitude displayed is 2.5.

Coastal Water Temperatures

Place Temperature
Santa Monica Pier 66.9 °F
Los Angeles, CA 66.9 °F
La Jolla, CA 71.1 °F

Nearby Weather Stations